Madison, Wisconsin
Current Conditions -  °F | °C
As of 12:53 PM on Thursday 30 Oct 2014 (Local Time) from KMSN Reporting Station
Broken Clouds Broken Clouds  
Wind Chill: 11°   Ceiling: 9000
Heat Index: 11°   Visibility: 10mi
Dew Point:   Wind: 6mph
Humidity: 56%   Direction: 240°WSW
Pressure: 30.07"   Gusts: NA
Location:  43.07°N, 89.39°W
Report Text: KMSN 301753Z 24005KT 10SM BKN090 11/02 A3007 RMK AO2 SLP189 T01060022 10106 20011 58009
Loading
Personal Weather Stations






























Interactive Weather Map New forecast layout! Learn more

10-Day Weather Forecast

Advertisements
Track Severe Weather on mobile